Time;durP1;ratioP1;P1;durP2;ratioP2;P2;SDS_P1;SDS_P2;PMS_P1;PMS_P2;Temp;Humidity;BMP_temperature;BMP_pressure;BME280_temperature;BME280_humidity;BME280_pressure;Samples;Min_cycle;Max_cycle;Signal;HPM_P1;HPM_P2
2022/04/12 00:00:43;;;;;;;17.30;14.20;;;;;;;;;;5070498;28;20036;-29
2022/04/12 00:03:09;;;;;;;17.30;14.40;;;;;;;;;;5051460;28;20051;-28
2022/04/12 00:05:36;;;;;;;15.15;13.02;;;;;;;;;;5051558;28;20049;-26
2022/04/12 00:08:03;;;;;;;17.45;13.20;;;;;;;;;;5053184;28;20490;-28
2022/04/12 00:10:29;;;;;;;19.83;14.40;;;;;;;;;;5071502;28;20083;-26
2022/04/12 00:12:57;;;;;;;17.20;14.55;;;;;;;;;;5071155;28;20048;-27
2022/04/12 00:15:23;;;;;;;16.67;13.25;;;;;;;;;;5071745;28;20060;-29
2022/04/12 00:20:34;;;;;;;17.42;14.45;;;;;;;;;;5071380;28;20040;-28
2022/04/12 00:23:00;;;;;;;17.10;14.82;;;;;;;;;;5070813;28;20051;-26
2022/04/12 00:25:27;;;;;;;15.98;14.27;;;;;;;;;;5053190;28;20040;-26
2022/04/12 00:27:53;;;;;;;19.30;14.13;;;;;;;;;;5071086;28;20056;-26
2022/04/12 00:30:20;;;;;;;15.82;12.40;;;;;;;;;;5071272;28;20123;-26
2022/04/12 00:32:47;;;;;;;15.85;14.15;;;;;;;;;;5070922;28;20517;-27
2022/04/12 00:35:13;;;;;;;17.67;13.88;;;;;;;;;;5071691;28;20047;-27
2022/04/12 00:37:40;;;;;;;16.77;13.65;;;;;;;;;;5070494;28;20064;-27
2022/04/12 00:40:06;;;;;;;15.35;13.50;;;;;;;;;;5070983;28;20448;-27
2022/04/12 00:42:32;;;;;;;17.10;13.77;;;;;;;;;;5072353;28;20043;-27
2022/04/12 00:44:59;;;;;;;15.45;12.70;;;;;;;;;;5074522;28;20049;-26
2022/04/12 00:47:25;;;;;;;15.25;13.10;;;;;;;;;;5074743;28;20076;-27
2022/04/12 00:49:52;;;;;;;15.13;12.90;;;;;;;;;;5074331;28;20041;-26
2022/04/12 00:52:18;;;;;;;17.73;13.90;;;;;;;;;;5074126;28;20057;-26
2022/04/12 00:54:44;;;;;;;18.50;13.45;;;;;;;;;;5074769;28;20397;-26
2022/04/12 00:57:12;;;;;;;14.40;12.65;;;;;;;;;;5056196;28;20031;-28
2022/04/12 00:59:38;;;;;;;14.30;12.80;;;;;;;;;;5074482;28;20068;-36
2022/04/12 01:02:07;;;;;;;16.83;13.27;;;;;;;;;;5073902;28;20409;-28
2022/04/12 01:04:34;;;;;;;14.18;12.60;;;;;;;;;;5074351;28;20110;-28
2022/04/12 01:07:00;;;;;;;14.43;12.55;;;;;;;;;;5072761;28;20037;-26
2022/04/12 01:09:27;;;;;;;14.95;12.88;;;;;;;;;;5054380;28;20347;-27
2022/04/12 01:11:57;;;;;;;16.15;12.88;;;;;;;;;;5054351;28;20159;-26
2022/04/12 01:14:24;;;;;;;16.48;12.90;;;;;;;;;;5055390;28;20090;-26
2022/04/12 01:16:50;;;;;;;15.90;12.35;;;;;;;;;;5073823;28;20071;-29
2022/04/12 01:19:16;;;;;;;14.13;12.45;;;;;;;;;;5072887;28;20044;-28
2022/04/12 01:21:42;;;;;;;14.52;12.93;;;;;;;;;;5074118;28;20497;-28
2022/04/12 01:24:08;;;;;;;15.60;13.30;;;;;;;;;;5073724;28;20040;-28
2022/04/12 01:26:34;;;;;;;15.10;12.95;;;;;;;;;;5074052;28;20616;-26
2022/04/12 01:29:01;;;;;;;13.52;11.98;;;;;;;;;;5055519;28;20120;-26
2022/04/12 01:31:27;;;;;;;15.70;12.20;;;;;;;;;;5067290;28;20467;-26
2022/04/12 01:33:53;;;;;;;14.07;12.15;;;;;;;;;;5066863;28;20044;-26
2022/04/12 01:36:19;;;;;;;13.70;11.63;;;;;;;;;;5071815;28;20044;-25
2022/04/12 01:38:46;;;;;;;14.02;12.50;;;;;;;;;;5065957;28;20037;-28
2022/04/12 01:41:12;;;;;;;15.52;11.95;;;;;;;;;;5039328;28;20066;-26
2022/04/12 01:43:38;;;;;;;13.88;12.07;;;;;;;;;;5073590;28;20040;-26
2022/04/12 01:46:04;;;;;;;15.00;11.50;;;;;;;;;;5073393;28;20090;-27
2022/04/12 01:48:30;;;;;;;14.40;11.85;;;;;;;;;;5073605;28;20378;-29
2022/04/12 01:50:56;;;;;;;13.52;11.73;;;;;;;;;;5073854;28;20565;-27
2022/04/12 01:53:22;;;;;;;14.07;11.40;;;;;;;;;;5073256;28;20040;-27
2022/04/12 01:55:49;;;;;;;14.50;11.43;;;;;;;;;;5073667;28;20072;-31
2022/04/12 01:58:15;;;;;;;16.42;12.20;;;;;;;;;;5073148;28;20562;-28
2022/04/12 02:00:42;;;;;;;14.90;12.40;;;;;;;;;;5073329;28;20115;-27
2022/04/12 02:03:09;;;;;;;14.82;12.00;;;;;;;;;;5055041;28;20048;-31
2022/04/12 02:05:35;;;;;;;14.13;12.10;;;;;;;;;;5066958;28;20125;-29
2022/04/12 02:08:02;;;;;;;15.85;13.05;;;;;;;;;;5073131;28;20044;-31
2022/04/12 02:10:28;;;;;;;16.33;12.80;;;;;;;;;;5039056;28;20249;-28
2022/04/12 02:12:54;;;;;;;15.90;11.98;;;;;;;;;;5072852;28;20041;-31
2022/04/12 02:15:20;;;;;;;14.40;12.25;;;;;;;;;;5073338;28;20040;-29
2022/04/12 02:17:46;;;;;;;16.55;12.50;;;;;;;;;;5072463;28;20037;-28
2022/04/12 02:20:12;;;;;;;14.75;12.30;;;;;;;;;;5072934;28;20507;-31
2022/04/12 02:22:38;;;;;;;12.63;11.30;;;;;;;;;;5072857;28;20135;-29
2022/04/12 02:25:05;;;;;;;15.20;11.98;;;;;;;;;;5073033;28;20071;-29
2022/04/12 02:27:31;;;;;;;15.82;12.57;;;;;;;;;;5073489;28;20059;-32
2022/04/12 02:29:57;;;;;;;15.68;12.27;;;;;;;;;;5074008;28;20119;-26
2022/04/12 02:32:23;;;;;;;14.65;11.57;;;;;;;;;;5073061;28;20044;-27
2022/04/12 02:34:49;;;;;;;15.95;12.40;;;;;;;;;;5072992;28;20036;-34
2022/04/12 02:37:15;;;;;;;13.48;11.43;;;;;;;;;;5072596;28;20435;-29
2022/04/12 02:39:41;;;;;;;13.73;12.07;;;;;;;;;;5073000;28;20047;-27
2022/04/12 02:42:08;;;;;;;15.93;12.32;;;;;;;;;;5073388;28;20058;-28
2022/04/12 02:44:34;;;;;;;14.95;11.63;;;;;;;;;;5073516;28;20501;-28
2022/04/12 02:47:00;;;;;;;17.30;13.13;;;;;;;;;;5073502;28;20039;-28
2022/04/12 02:49:26;;;;;;;14.65;12.43;;;;;;;;;;5073294;28;20085;-28
2022/04/12 02:51:52;;;;;;;14.88;11.57;;;;;;;;;;5055279;28;20397;-28
2022/04/12 02:54:18;;;;;;;15.60;12.45;;;;;;;;;;5072755;28;20044;-28
2022/04/12 02:56:45;;;;;;;14.25;11.88;;;;;;;;;;5072394;28;20482;-28
2022/04/12 02:59:11;;;;;;;15.20;12.63;;;;;;;;;;5054550;28;20118;-28
2022/04/12 03:01:37;;;;;;;13.93;12.10;;;;;;;;;;5072783;28;20432;-29
2022/04/12 03:04:03;;;;;;;15.98;12.55;;;;;;;;;;5054986;28;20140;-28
2022/04/12 03:06:29;;;;;;;14.95;11.95;;;;;;;;;;5072438;28;20048;-28
2022/04/12 03:08:55;;;;;;;13.95;12.23;;;;;;;;;;5072826;28;20044;-27
2022/04/12 03:11:21;;;;;;;14.13;12.13;;;;;;;;;;5072706;28;20051;-28
2022/04/12 03:13:48;;;;;;;15.93;12.60;;;;;;;;;;5072594;28;20044;-27
2022/04/12 03:16:15;;;;;;;14.15;12.10;;;;;;;;;;5072116;28;20097;-30
2022/04/12 03:18:41;;;;;;;18.13;12.65;;;;;;;;;;5072762;28;20040;-27
2022/04/12 03:21:07;;;;;;;14.95;12.98;;;;;;;;;;5072344;28;20538;-31
2022/04/12 03:23:33;;;;;;;18.50;12.80;;;;;;;;;;5072699;28;20042;-28
2022/04/12 03:25:59;;;;;;;15.00;11.95;;;;;;;;;;5072646;28;20041;-33
2022/04/12 03:28:25;;;;;;;13.77;11.45;;;;;;;;;;5054771;28;20077;-27
2022/04/12 03:30:51;;;;;;;17.33;12.43;;;;;;;;;;5072412;28;20124;-29
2022/04/12 03:33:17;;;;;;;13.82;12.27;;;;;;;;;;5072280;28;20046;-28
2022/04/12 03:35:43;;;;;;;14.93;12.00;;;;;;;;;;5072548;28;20037;-27
2022/04/12 03:38:10;;;;;;;14.30;11.48;;;;;;;;;;5072001;28;20045;-27
2022/04/12 03:40:36;;;;;;;14.10;11.50;;;;;;;;;;5072447;28;20094;-27
2022/04/12 03:43:04;;;;;;;12.65;10.82;;;;;;;;;;5072531;28;20402;-26
2022/04/12 03:45:30;;;;;;;15.52;11.63;;;;;;;;;;5054217;28;20075;-28
2022/04/12 03:47:56;;;;;;;14.93;12.25;;;;;;;;;;5054147;28;20041;-26
2022/04/12 03:50:23;;;;;;;14.95;11.45;;;;;;;;;;5072618;28;20044;-27
2022/04/12 03:52:49;;;;;;;15.20;11.25;;;;;;;;;;5072276;28;20482;-27
2022/04/12 03:55:15;;;;;;;12.63;10.82;;;;;;;;;;5072126;28;20033;-28
2022/04/12 03:57:42;;;;;;;12.90;11.05;;;;;;;;;;5072589;28;20043;-27
2022/04/12 04:00:09;;;;;;;13.40;11.20;;;;;;;;;;5072479;28;20037;-26
2022/04/12 04:02:35;;;;;;;13.60;11.65;;;;;;;;;;5072253;28;20099;-28
2022/04/12 04:05:02;;;;;;;14.45;11.77;;;;;;;;;;5054581;28;20040;-27
2022/04/12 04:07:28;;;;;;;15.95;11.30;;;;;;;;;;5072366;28;20144;-28
2022/04/12 04:09:54;;;;;;;14.05;10.40;;;;;;;;;;5054125;28;20052;-26
2022/04/12 04:12:22;;;;;;;14.25;11.60;;;;;;;;;;5053839;28;20040;-27
2022/04/12 04:14:49;;;;;;;14.93;11.27;;;;;;;;;;5072237;28;20052;-30
2022/04/12 04:17:15;;;;;;;14.02;11.98;;;;;;;;;;5056006;28;20037;-27
2022/04/12 04:19:41;;;;;;;13.23;10.52;;;;;;;;;;5041339;28;20036;-30
2022/04/12 04:22:07;;;;;;;12.70;11.30;;;;;;;;;;5076247;28;20033;-32
2022/04/12 04:24:34;;;;;;;13.82;11.32;;;;;;;;;;5057573;28;20124;-33
2022/04/12 04:27:00;;;;;;;15.93;11.07;;;;;;;;;;5041149;28;20044;-32
2022/04/12 04:29:33;;;;;;;15.90;11.70;;;;;;;;;;5057141;28;20490;-32
2022/04/12 04:31:59;;;;;;;14.07;11.32;;;;;;;;;;5074450;28;20139;-27
2022/04/12 04:34:25;;;;;;;13.68;11.30;;;;;;;;;;5074652;28;20389;-29
2022/04/12 04:36:51;;;;;;;12.25;10.70;;;;;;;;;;5074400;28;20056;-28
2022/04/12 04:39:17;;;;;;;15.10;11.60;;;;;;;;;;5074214;28;20037;-29
2022/04/12 04:41:43;;;;;;;14.23;11.50;;;;;;;;;;5074692;28;20048;-30
2022/04/12 04:44:09;;;;;;;16.33;11.27;;;;;;;;;;5074827;28;20088;-28
2022/04/12 04:46:35;;;;;;;14.15;11.52;;;;;;;;;;5056745;28;20052;-28
2022/04/12 04:49:01;;;;;;;14.98;12.38;;;;;;;;;;5054484;28;20083;-30
2022/04/12 04:51:28;;;;;;;12.93;11.07;;;;;;;;;;5072013;28;20056;-30
2022/04/12 04:54:00;;;;;;;14.80;11.07;;;;;;;;;;5074729;28;20048;-30
2022/04/12 04:56:27;;;;;;;13.48;11.18;;;;;;;;;;5074571;28;20040;-29
2022/04/12 04:58:53;;;;;;;14.70;12.10;;;;;;;;;;5073805;28;20036;-30
2022/04/12 05:01:20;;;;;;;15.40;11.48;;;;;;;;;;5073815;28;20041;-28
2022/04/12 05:03:47;;;;;;;13.93;11.02;;;;;;;;;;5074414;28;20405;-29
2022/04/12 05:06:13;;;;;;;15.50;11.07;;;;;;;;;;5073973;28;20102;-29
2022/04/12 05:08:39;;;;;;;14.35;11.05;;;;;;;;;;5073986;28;20467;-29
2022/04/12 05:11:05;;;;;;;14.52;11.63;;;;;;;;;;5073733;28;20041;-29
2022/04/12 05:13:31;;;;;;;14.32;11.65;;;;;;;;;;5074334;28;20041;-32
2022/04/12 05:15:58;;;;;;;13.00;11.07;;;;;;;;;;5074112;28;20440;-28
2022/04/12 05:18:24;;;;;;;14.75;11.13;;;;;;;;;;5073736;28;20047;-29
2022/04/12 05:20:50;;;;;;;14.15;11.05;;;;;;;;;;5073039;28;20120;-29
2022/04/12 05:23:17;;;;;;;15.25;11.27;;;;;;;;;;5065461;28;20037;-29
2022/04/12 05:25:43;;;;;;;13.57;12.00;;;;;;;;;;5074122;28;20413;-28
2022/04/12 05:28:09;;;;;;;12.88;10.43;;;;;;;;;;5073291;28;20044;-28
2022/04/12 05:30:35;;;;;;;16.73;12.30;;;;;;;;;;5070585;28;20434;-29
2022/04/12 05:33:01;;;;;;;15.75;11.65;;;;;;;;;;5069291;28;20045;-29
2022/04/12 05:35:27;;;;;;;13.05;11.38;;;;;;;;;;5072034;28;20409;-27
2022/04/12 05:37:54;;;;;;;13.90;11.63;;;;;;;;;;5065551;28;20097;-29
2022/04/12 05:40:21;;;;;;;15.75;11.43;;;;;;;;;;5064955;28;20035;-30
2022/04/12 05:42:48;;;;;;;13.57;11.40;;;;;;;;;;5066210;28;20036;-29
2022/04/12 05:45:14;;;;;;;15.55;12.13;;;;;;;;;;5069266;28;20521;-30
2022/04/12 05:47:43;;;;;;;15.30;11.45;;;;;;;;;;5073763;28;20047;-29
2022/04/12 05:50:10;;;;;;;17.73;12.32;;;;;;;;;;5073533;28;20105;-30
2022/04/12 05:52:38;;;;;;;17.17;11.63;;;;;;;;;;5072378;28;20041;-29
2022/04/12 05:55:05;;;;;;;14.88;11.77;;;;;;;;;;5064488;28;20033;-31
2022/04/12 05:57:31;;;;;;;18.00;12.18;;;;;;;;;;5056853;28;20036;-30
2022/04/12 05:59:58;;;;;;;13.88;11.93;;;;;;;;;;5060807;28;20036;-30
2022/04/12 06:02:24;;;;;;;15.30;12.18;;;;;;;;;;5056940;28;20401;-30
2022/04/12 06:04:50;;;;;;;16.13;11.48;;;;;;;;;;5059747;28;20409;-31
2022/04/12 06:07:16;;;;;;;13.88;11.75;;;;;;;;;;5064894;28;20032;-30
2022/04/12 06:09:42;;;;;;;13.85;10.63;;;;;;;;;;5055040;28;20087;-31
2022/04/12 06:12:09;;;;;;;13.52;10.75;;;;;;;;;;5061130;28;20041;-30
2022/04/12 06:14:35;;;;;;;13.43;11.45;;;;;;;;;;5058417;28;20132;-30
2022/04/12 06:17:01;;;;;;;13.98;11.20;;;;;;;;;;5060054;28;20037;-30
2022/04/12 06:19:27;;;;;;;13.85;11.20;;;;;;;;;;5059187;28;20490;-29
2022/04/12 06:21:53;;;;;;;12.40;10.80;;;;;;;;;;5060806;28;20036;-29
2022/04/12 06:24:19;;;;;;;12.23;10.60;;;;;;;;;;5059965;28;20037;-31
2022/04/12 06:26:46;;;;;;;15.52;11.60;;;;;;;;;;5060087;28;20291;-30
2022/04/12 06:29:13;;;;;;;14.38;11.70;;;;;;;;;;5060044;28;20037;-30
2022/04/12 06:31:40;;;;;;;13.02;10.85;;;;;;;;;;5042131;28;20044;-29
2022/04/12 06:34:06;;;;;;;13.55;10.82;;;;;;;;;;5046057;28;20477;-28
2022/04/12 06:36:32;;;;;;;13.27;10.18;;;;;;;;;;5070891;28;20036;-29
2022/04/12 06:38:59;;;;;;;12.18;10.43;;;;;;;;;;5063711;28;20127;-33
2022/04/12 06:41:26;;;;;;;12.60;11.07;;;;;;;;;;5070748;28;20032;-29
2022/04/12 06:43:52;;;;;;;15.40;11.07;;;;;;;;;;5072222;28;20091;-32
2022/04/12 06:46:18;;;;;;;14.95;11.55;;;;;;;;;;5072057;28;20072;-32
2022/04/12 06:48:44;;;;;;;12.43;10.73;;;;;;;;;;5071857;28;20037;-30
2022/04/12 06:51:10;;;;;;;12.10;10.68;;;;;;;;;;5065539;28;20467;-30
2022/04/12 06:53:36;;;;;;;13.55;11.15;;;;;;;;;;5070335;28;20079;-30
2022/04/12 06:56:02;;;;;;;13.48;10.85;;;;;;;;;;5059825;28;20385;-31
2022/04/12 06:58:29;;;;;;;14.02;10.98;;;;;;;;;;5046814;28;20447;-31
2022/04/12 07:00:56;;;;;;;15.65;12.25;;;;;;;;;;5067878;28;20102;-31
2022/04/12 07:03:22;;;;;;;12.25;10.65;;;;;;;;;;5067111;28;20036;-31
2022/04/12 07:05:49;;;;;;;15.55;12.27;;;;;;;;;;5065881;28;20063;-31
2022/04/12 07:08:15;;;;;;;15.02;11.88;;;;;;;;;;5064205;28;20041;-31
2022/04/12 07:10:43;;;;;;;15.85;12.48;;;;;;;;;;5042234;28;20375;-30
2022/04/12 07:13:09;;;;;;;14.10;12.20;;;;;;;;;;5068570;28;20116;-30
2022/04/12 07:15:35;;;;;;;17.38;13.13;;;;;;;;;;5063041;28;20498;-29
2022/04/12 07:18:01;;;;;;;16.50;12.93;;;;;;;;;;5068166;28;20051;-28
2022/04/12 07:20:27;;;;;;;15.95;12.77;;;;;;;;;;5069588;28;20040;-28
2022/04/12 07:22:53;;;;;;;14.48;12.27;;;;;;;;;;5056707;28;20029;-28
2022/04/12 07:25:19;;;;;;;16.67;12.80;;;;;;;;;;5023520;28;20048;-29
2022/04/12 07:27:46;;;;;;;16.08;12.13;;;;;;;;;;5062557;28;20045;-26
2022/04/12 07:30:12;;;;;;;12.85;11.13;;;;;;;;;;5069447;28;20043;-29
2022/04/12 07:32:41;;;;;;;13.73;11.52;;;;;;;;;;5064023;28;20565;-26
2022/04/12 07:35:09;;;;;;;15.98;12.82;;;;;;;;;;5065231;28;20040;-28
2022/04/12 07:37:35;;;;;;;13.73;10.27;;;;;;;;;;5066102;28;20410;-27
2022/04/12 07:40:02;;;;;;;14.25;11.65;;;;;;;;;;5051498;28;20451;-27
2022/04/12 07:42:29;;;;;;;14.02;11.02;;;;;;;;;;5066885;28;20040;-28
2022/04/12 07:44:55;;;;;;;12.20;10.07;;;;;;;;;;5066401;28;20141;-29
2022/04/12 07:47:21;;;;;;;14.05;10.60;;;;;;;;;;5062966;28;20032;-28
2022/04/12 07:49:47;;;;;;;12.15;9.88;;;;;;;;;;5045218;28;20078;-28
2022/04/12 07:52:14;;;;;;;12.73;9.95;;;;;;;;;;5074195;28;20105;-29
2022/04/12 07:54:41;;;;;;;10.70;9.60;;;;;;;;;;5075952;28;20055;-30
2022/04/12 07:57:07;;;;;;;12.27;10.18;;;;;;;;;;5071180;28;20041;-31
2022/04/12 07:59:33;;;;;;;10.30;9.05;;;;;;;;;;5071797;28;20051;-27
2022/04/12 08:01:59;;;;;;;10.50;9.05;;;;;;;;;;5063142;28;20044;-28
2022/04/12 08:04:28;;;;;;;11.85;9.55;;;;;;;;;;5072198;28;20082;-30
2022/04/12 08:06:54;;;;;;;11.20;9.50;;;;;;;;;;5072562;28;20032;-28
2022/04/12 08:09:20;;;;;;;14.02;10.25;;;;;;;;;;5070136;28;20041;-27
2022/04/12 08:11:46;;;;;;;14.35;9.40;;;;;;;;;;5075571;28;20040;-29
2022/04/12 08:14:12;;;;;;;11.00;9.02;;;;;;;;;;5075244;28;20055;-30
2022/04/12 08:16:39;;;;;;;12.35;9.25;;;;;;;;;;5075217;28;20045;-29
2022/04/12 08:19:05;;;;;;;11.25;9.88;;;;;;;;;;5075163;28;20033;-28
2022/04/12 08:21:35;;;;;;;14.00;8.90;;;;;;;;;;5075070;28;20044;-28
2022/04/12 08:24:01;;;;;;;11.43;9.50;;;;;;;;;;5075679;28;20500;-29
2022/04/12 08:26:28;;;;;;;10.43;9.13;;;;;;;;;;5075663;28;20051;-29
2022/04/12 08:28:54;;;;;;;11.50;9.20;;;;;;;;;;5075468;28;20044;-28
2022/04/12 08:31:21;;;;;;;13.15;9.27;;;;;;;;;;5057342;28;20041;-28
2022/04/12 08:33:47;;;;;;;9.95;8.95;;;;;;;;;;5057000;28;20040;-30
2022/04/12 08:36:16;;;;;;;10.02;9.02;;;;;;;;;;5074947;28;20459;-26
2022/04/12 08:38:44;;;;;;;15.50;9.73;;;;;;;;;;5075009;28;20229;-27
2022/04/12 08:41:12;;;;;;;10.90;9.77;;;;;;;;;;5057124;28;20040;-29
2022/04/12 08:43:41;;;;;;;10.13;8.80;;;;;;;;;;5073624;28;20135;-29
2022/04/12 08:46:08;;;;;;;11.15;9.52;;;;;;;;;;5055216;28;20044;-30
2022/04/12 08:48:35;;;;;;;10.20;8.80;;;;;;;;;;5073228;28;20049;-29
2022/04/12 08:51:02;;;;;;;11.77;9.30;;;;;;;;;;5073651;28;20076;-30
2022/04/12 08:53:29;;;;;;;11.95;8.65;;;;;;;;;;5073628;28;20128;-30
2022/04/12 08:55:55;;;;;;;10.32;8.68;;;;;;;;;;5073047;28;20036;-31
2022/04/12 08:58:22;;;;;;;11.73;9.63;;;;;;;;;;5073766;28;20047;-30
2022/04/12 09:00:50;;;;;;;10.38;8.65;;;;;;;;;;5073976;28;20131;-30
2022/04/12 09:03:16;;;;;;;9.88;8.57;;;;;;;;;;5073365;28;20040;-30
2022/04/12 09:05:42;;;;;;;9.65;8.48;;;;;;;;;;5074523;28;20037;-29
2022/04/12 09:08:27;;;;;;;10.00;8.98;;;;;;;;;;5074529;28;20052;-29
2022/04/12 09:10:57;;;;;;;10.57;9.45;;;;;;;;;;5074971;28;20049;-30
2022/04/12 09:13:25;;;;;;;10.93;8.23;;;;;;;;;;5024141;28;20488;-31
2022/04/12 09:15:52;;;;;;;9.13;7.82;;;;;;;;;;5074453;28;20079;-30
2022/04/12 09:18:34;;;;;;;10.68;9.38;;;;;;;;;;5074289;28;20059;-30
2022/04/12 09:21:20;;;;;;;11.20;8.93;;;;;;;;;;5055973;28;20510;-30
2022/04/12 09:23:51;;;;;;;8.88;7.97;;;;;;;;;;5073940;28;20123;-29
2022/04/12 09:26:27;;;;;;;8.90;8.00;;;;;;;;;;5073694;28;20051;-30
2022/04/12 09:28:54;;;;;;;9.85;8.85;;;;;;;;;;5073565;28;20079;-30
2022/04/12 09:31:20;;;;;;;8.65;7.85;;;;;;;;;;5073344;28;20067;-28
2022/04/12 09:33:47;;;;;;;10.55;8.50;;;;;;;;;;5073470;28;20105;-28
2022/04/12 09:36:13;;;;;;;10.98;8.57;;;;;;;;;;5073598;28;20093;-28
2022/04/12 09:38:40;;;;;;;11.55;8.50;;;;;;;;;;5073194;28;20382;-27
2022/04/12 09:41:14;;;;;;;9.18;8.27;;;;;;;;;;5055446;28;20078;-29
2022/04/12 09:44:05;;;;;;;9.32;8.20;;;;;;;;;;5054989;28;20041;-28
2022/04/12 09:46:32;;;;;;;9.40;7.95;;;;;;;;;;5055485;28;20127;-28
2022/04/12 09:48:58;;;;;;;9.18;8.27;;;;;;;;;;5073403;28;20123;-28
2022/04/12 09:51:24;;;;;;;9.98;7.93;;;;;;;;;;5073397;28;20052;-29
2022/04/12 09:53:51;;;;;;;17.40;8.50;;;;;;;;;;5072972;28;20401;-29
2022/04/12 09:56:18;;;;;;;13.02;9.13;;;;;;;;;;5073335;28;20036;-29
2022/04/12 09:58:46;;;;;;;9.77;8.20;;;;;;;;;;5072893;28;20033;-29
2022/04/12 10:01:12;;;;;;;9.35;7.78;;;;;;;;;;5072569;28;20076;-29
2022/04/12 10:03:39;;;;;;;8.50;7.70;;;;;;;;;;5072878;28;20047;-29
2022/04/12 10:06:06;;;;;;;9.85;8.75;;;;;;;;;;5072466;28;20123;-28
2022/04/12 10:08:34;;;;;;;10.80;8.57;;;;;;;;;;5072787;28;20458;-29
2022/04/12 10:11:00;;;;;;;9.27;8.38;;;;;;;;;;5072293;28;20032;-29
2022/04/12 10:13:26;;;;;;;8.40;7.45;;;;;;;;;;5072657;28;20048;-29
2022/04/12 10:15:53;;;;;;;8.45;7.18;;;;;;;;;;5072450;28;20123;-29
2022/04/12 10:18:20;;;;;;;8.57;7.60;;;;;;;;;;5072140;28;20075;-30
2022/04/12 10:20:46;;;;;;;8.73;7.82;;;;;;;;;;5072436;28;20521;-30
2022/04/12 10:23:14;;;;;;;9.50;7.80;;;;;;;;;;5072390;28;20123;-31
2022/04/12 10:25:41;;;;;;;8.32;7.53;;;;;;;;;;5072476;28;20127;-30
2022/04/12 10:28:07;;;;;;;9.18;7.53;;;;;;;;;;5072051;28;20044;-30
2022/04/12 10:30:33;;;;;;;13.18;8.73;;;;;;;;;;5072385;28;20041;-30
2022/04/12 10:33:02;;;;;;;9.40;8.43;;;;;;;;;;5072094;28;20041;-30
2022/04/12 10:35:29;;;;;;;10.25;8.10;;;;;;;;;;5072341;28;20451;-29
2022/04/12 10:37:59;;;;;;;8.63;7.43;;;;;;;;;;5071906;28;20555;-30
2022/04/12 10:40:26;;;;;;;9.23;8.27;;;;;;;;;;5072137;28;20497;-29
2022/04/12 10:42:54;;;;;;;9.70;7.88;;;;;;;;;;5071735;28;20048;-30
2022/04/12 10:45:28;;;;;;;8.93;8.07;;;;;;;;;;5072007;28;20508;-30
2022/04/12 10:47:58;;;;;;;8.82;7.93;;;;;;;;;;5072251;28;20478;-30
2022/04/12 10:50:24;;;;;;;8.80;7.88;;;;;;;;;;5071559;28;20082;-29
2022/04/12 10:52:50;;;;;;;9.35;8.10;;;;;;;;;;5071832;28;20048;-30
2022/04/12 10:55:16;;;;;;;11.48;8.57;;;;;;;;;;5071778;28;20094;-31
2022/04/12 10:57:42;;;;;;;8.23;7.47;;;;;;;;;;5071763;28;20482;-30
2022/04/12 11:00:09;;;;;;;8.77;7.88;;;;;;;;;;5071572;28;20433;-29
2022/04/12 11:02:52;;;;;;;9.18;8.13;;;;;;;;;;5071730;28;20533;-30
2022/04/12 11:05:34;;;;;;;8.63;7.82;;;;;;;;;;5071450;28;20501;-30
2022/04/12 11:08:00;;;;;;;9.45;8.43;;;;;;;;;;5071554;28;20120;-29
2022/04/12 11:10:26;;;;;;;10.20;7.82;;;;;;;;;;5053769;28;20036;-30
2022/04/12 11:13:07;;;;;;;8.98;8.07;;;;;;;;;;5071495;28;20099;-30
2022/04/12 11:15:33;;;;;;;9.32;8.43;;;;;;;;;;5071624;28;20656;-30
2022/04/12 11:18:06;;;;;;;10.10;8.27;;;;;;;;;;5071648;28;20058;-30
2022/04/12 11:20:33;;;;;;;10.00;8.43;;;;;;;;;;5071015;28;20063;-29
2022/04/12 11:22:59;;;;;;;10.52;8.60;;;;;;;;;;5071868;28;20044;-29
2022/04/12 11:25:28;;;;;;;10.88;9.48;;;;;;;;;;5072429;28;20036;-30
2022/04/12 11:27:55;;;;;;;9.23;8.32;;;;;;;;;;5071342;28;20040;-30
2022/04/12 11:30:21;;;;;;;12.95;8.95;;;;;;;;;;5071091;28;20047;-30
2022/04/12 11:32:48;;;;;;;9.90;8.90;;;;;;;;;;5064205;28;20486;-30
2022/04/12 11:35:14;;;;;;;9.80;8.80;;;;;;;;;;5070973;28;20048;-29
2022/04/12 11:37:41;;;;;;;9.07;8.13;;;;;;;;;;5068209;28;20382;-29
2022/04/12 11:40:07;;;;;;;9.30;8.30;;;;;;;;;;5070339;28;20041;-30
2022/04/12 11:42:33;;;;;;;9.55;8.60;;;;;;;;;;5071418;28;20516;-30
2022/04/12 11:45:00;;;;;;;10.75;8.90;;;;;;;;;;5071431;28;20037;-29
2022/04/12 11:47:28;;;;;;;10.38;8.45;;;;;;;;;;5071339;28;20066;-30
2022/04/12 11:49:54;;;;;;;9.80;8.50;;;;;;;;;;5071508;28;20041;-30
2022/04/12 11:52:20;;;;;;;10.77;8.82;;;;;;;;;;5071725;28;20469;-30
2022/04/12 11:54:48;;;;;;;10.77;9.38;;;;;;;;;;5071686;28;20393;-31
2022/04/12 11:57:20;;;;;;;9.95;8.93;;;;;;;;;;5071689;28;20490;-30
2022/04/12 11:59:48;;;;;;;10.20;8.97;;;;;;;;;;5058740;28;20099;-31
2022/04/12 12:02:15;;;;;;;10.82;8.85;;;;;;;;;;5036990;28;20120;-31
2022/04/12 12:04:45;;;;;;;11.25;9.02;;;;;;;;;;5060633;28;20050;-31
2022/04/12 12:07:11;;;;;;;12.13;9.70;;;;;;;;;;5060727;28;20064;-31
2022/04/12 12:09:39;;;;;;;9.50;8.50;;;;;;;;;;5055716;28;20450;-29
2022/04/12 12:12:09;;;;;;;10.25;8.48;;;;;;;;;;5051564;28;20063;-30
2022/04/12 12:14:36;;;;;;;10.07;8.40;;;;;;;;;;5051417;28;20052;-30
2022/04/12 12:17:09;;;;;;;13.40;9.10;;;;;;;;;;5051409;28;20041;-30
2022/04/12 12:19:38;;;;;;;10.00;7.88;;;;;;;;;;5051296;28;20087;-31
2022/04/12 12:22:05;;;;;;;8.70;7.57;;;;;;;;;;5057405;28;20105;-30
2022/04/12 12:24:37;;;;;;;8.40;7.35;;;;;;;;;;5071293;28;20048;-29
2022/04/12 12:27:03;;;;;;;11.45;8.07;;;;;;;;;;5071264;28;20152;-30
2022/04/12 12:29:29;;;;;;;10.60;8.35;;;;;;;;;;5071290;28;20052;-30
2022/04/12 12:31:56;;;;;;;10.60;8.20;;;;;;;;;;5071471;28;20044;-30
2022/04/12 12:34:28;;;;;;;9.82;8.07;;;;;;;;;;5071253;28;20040;-29
2022/04/12 12:36:54;;;;;;;12.05;9.00;;;;;;;;;;5071229;28;20032;-31
2022/04/12 12:39:20;;;;;;;10.60;8.30;;;;;;;;;;5073798;28;20485;-30
2022/04/12 12:41:46;;;;;;;7.95;7.15;;;;;;;;;;5074770;28;20040;-30
2022/04/12 12:44:13;;;;;;;9.65;7.32;;;;;;;;;;5074662;28;20041;-29
2022/04/12 12:46:39;;;;;;;9.30;7.43;;;;;;;;;;5074967;28;20051;-30
2022/04/12 12:49:12;;;;;;;8.30;7.40;;;;;;;;;;5074677;28;20490;-30
2022/04/12 12:51:38;;;;;;;11.80;8.52;;;;;;;;;;5074468;28;20123;-29
2022/04/12 12:54:06;;;;;;;11.07;8.45;;;;;;;;;;5074596;28;20072;-30
2022/04/12 12:56:36;;;;;;;9.52;8.10;;;;;;;;;;5074233;28;20048;-29
2022/04/12 12:59:21;;;;;;;9.73;8.25;;;;;;;;;;5074410;28;20041;-30
2022/04/12 13:01:48;;;;;;;9.25;7.57;;;;;;;;;;5074466;28;20033;-30
2022/04/12 13:04:28;;;;;;;12.43;8.80;;;;;;;;;;5074324;28;20173;-33
2022/04/12 13:07:00;;;;;;;10.65;7.82;;;;;;;;;;5056602;28;20047;-29
2022/04/12 13:09:26;;;;;;;8.65;7.63;;;;;;;;;;5075243;28;20051;-30
2022/04/12 13:11:52;;;;;;;9.35;7.85;;;;;;;;;;5074576;28;20135;-29
2022/04/12 13:14:18;;;;;;;9.20;7.72;;;;;;;;;;5074625;28;20365;-29
2022/04/12 13:16:44;;;;;;;9.73;7.78;;;;;;;;;;5073937;28;20040;-29
2022/04/12 13:19:10;;;;;;;9.60;7.93;;;;;;;;;;5074139;28;20037;-30
2022/04/12 13:21:36;;;;;;;8.50;7.20;;;;;;;;;;5074107;28;20043;-32
2022/04/12 13:24:02;;;;;;;11.10;7.93;;;;;;;;;;5074303;28;20072;-30
2022/04/12 13:26:28;;;;;;;9.77;7.57;;;;;;;;;;5073945;28;20492;-30
2022/04/12 13:28:54;;;;;;;9.85;8.25;;;;;;;;;;5074263;28;20047;-30
2022/04/12 13:31:21;;;;;;;10.32;8.43;;;;;;;;;;5073452;28;20123;-30
2022/04/12 13:33:47;;;;;;;12.85;8.18;;;;;;;;;;5075027;28;20036;-34
2022/04/12 13:36:13;;;;;;;9.77;7.80;;;;;;;;;;5073807;28;20468;-35
2022/04/12 13:38:39;;;;;;;10.70;8.20;;;;;;;;;;5071324;28;20508;-30
2022/04/12 13:41:05;;;;;;;10.68;7.70;;;;;;;;;;5073342;28;20181;-30
2022/04/12 13:43:31;;;;;;;10.00;7.07;;;;;;;;;;5072822;28;20036;-30
2022/04/12 13:45:57;;;;;;;10.63;7.85;;;;;;;;;;5073357;28;20036;-29
2022/04/12 13:48:23;;;;;;;8.38;6.60;;;;;;;;;;5072858;28;20040;-29
2022/04/12 13:50:51;;;;;;;10.80;7.47;;;;;;;;;;5072874;28;20043;-29
2022/04/12 13:53:17;;;;;;;9.43;7.70;;;;;;;;;;5067901;28;20045;-30
2022/04/12 13:55:43;;;;;;;8.50;7.60;;;;;;;;;;5053311;28;20037;-30
2022/04/12 13:58:09;;;;;;;8.95;6.93;;;;;;;;;;5068124;28;20196;-30
2022/04/12 14:00:35;;;;;;;10.38;7.50;;;;;;;;;;5073317;28;20313;-30
2022/04/12 14:03:01;;;;;;;10.10;6.65;;;;;;;;;;5073052;28;20041;-29
2022/04/12 14:05:28;;;;;;;9.25;6.50;;;;;;;;;;5072902;28;20052;-31
2022/04/12 14:07:57;;;;;;;7.82;6.28;;;;;;;;;;5072954;28;20052;-30
2022/04/12 14:10:23;;;;;;;8.23;6.88;;;;;;;;;;5073038;28;20041;-30
2022/04/12 14:12:49;;;;;;;8.88;6.63;;;;;;;;;;5054722;28;20079;-30
2022/04/12 14:15:15;;;;;;;9.32;6.55;;;;;;;;;;5073156;28;20067;-30
2022/04/12 14:17:41;;;;;;;8.75;6.25;;;;;;;;;;5072912;28;20040;-30
2022/04/12 14:20:08;;;;;;;7.65;5.85;;;;;;;;;;5073038;28;20386;-30
2022/04/12 14:22:35;;;;;;;5.93;5.25;;;;;;;;;;5054307;28;20044;-30
2022/04/12 14:25:01;;;;;;;6.07;5.38;;;;;;;;;;5072233;28;20116;-32
2022/04/12 14:27:27;;;;;;;8.20;6.35;;;;;;;;;;5072878;28;20036;-31